createdAt,value
2023-04-14T00:01:31.711Z,81.16
2023-04-14T00:03:04.432Z,81.08
2023-04-14T00:04:36.960Z,80.91
2023-04-14T00:06:09.202Z,80.83
2023-04-14T00:07:41.328Z,80.60
2023-04-14T00:09:13.468Z,80.89
2023-04-14T00:10:45.592Z,81.10
2023-04-14T00:12:17.645Z,81.14
2023-04-14T00:13:49.808Z,81.63
2023-04-14T00:15:22.342Z,81.83
2023-04-14T00:16:54.463Z,81.65
2023-04-14T00:18:26.728Z,81.67
2023-04-14T00:19:58.786Z,81.86
2023-04-14T00:21:32.044Z,81.53
2023-04-14T00:23:04.131Z,81.70
2023-04-14T00:24:41.241Z,81.67
2023-04-14T00:26:13.352Z,81.92
2023-04-14T00:27:45.466Z,81.72
2023-04-14T00:29:17.609Z,81.99
2023-04-14T00:30:49.855Z,81.91
2023-04-14T00:32:22.009Z,82.15
2023-04-14T00:33:54.141Z,81.73
2023-04-14T00:35:26.378Z,81.37
2023-04-14T00:36:58.522Z,81.26
2023-04-14T00:38:30.815Z,81.62
2023-04-14T00:40:03.175Z,81.28
2023-04-14T00:41:35.796Z,80.92
2023-04-14T00:43:07.929Z,80.75
2023-04-14T00:44:40.124Z,80.91
2023-04-14T00:46:15.121Z,80.53
2023-04-14T00:47:48.420Z,80.42
2023-04-14T00:49:20.675Z,80.92
2023-04-14T00:50:52.904Z,80.80
2023-04-14T00:52:25.971Z,81.11
2023-04-14T00:53:58.097Z,81.14
2023-04-14T00:55:30.867Z,81.16
2023-04-14T00:57:03.371Z,81.19
2023-04-14T00:58:35.907Z,81.03
2023-04-14T01:00:08.651Z,80.83
2023-04-14T01:01:41.894Z,80.73
2023-04-14T01:03:14.135Z,80.73
2023-04-14T01:04:53.765Z,80.61
2023-04-14T01:06:27.605Z,80.45
2023-04-14T01:07:59.822Z,80.46
2023-04-14T01:09:32.398Z,80.08
2023-04-14T01:11:17.585Z,80.01
2023-04-14T01:12:55.056Z,80.43
2023-04-14T01:15:05.868Z,80.11
2023-04-14T01:16:40.620Z,80.05
2023-04-14T01:18:27.162Z,79.76
2023-04-14T01:20:17.399Z,80.09
2023-04-14T01:21:52.621Z,80.35
2023-04-14T01:23:27.848Z,80.71
2023-04-14T01:25:05.511Z,80.75
2023-04-14T01:26:37.942Z,80.83
2023-04-14T01:28:39.230Z,81.02
2023-04-14T01:30:30.260Z,81.05
2023-04-14T01:32:12.402Z,80.96
2023-04-14T01:33:50.647Z,80.81
2023-04-14T01:35:43.066Z,80.65
2023-04-14T01:37:21.954Z,80.62
2023-04-14T01:38:55.975Z,80.84
2023-04-14T01:40:29.021Z,81.14
2023-04-14T01:42:02.759Z,80.82
2023-04-14T01:43:38.473Z,81.05
2023-04-14T01:45:18.896Z,80.98
2023-04-14T01:46:52.660Z,81.30
2023-04-14T01:48:26.316Z,81.11
2023-04-14T01:50:00.054Z,81.23
2023-04-14T01:51:32.996Z,80.91
2023-04-14T01:53:07.210Z,80.97
2023-04-14T01:54:40.540Z,80.80
2023-04-14T01:56:13.738Z,80.59
2023-04-14T01:57:50.330Z,80.61
2023-04-14T01:59:23.679Z,80.87
2023-04-14T02:00:56.363Z,80.66
2023-04-14T02:02:28.742Z,80.77
2023-04-14T02:04:05.492Z,81.16
2023-04-14T02:05:39.782Z,81.07
2023-04-14T02:07:13.084Z,81.48
2023-04-14T02:08:45.237Z,81.69
2023-04-14T02:10:20.488Z,81.94
2023-04-14T02:11:53.530Z,81.80
2023-04-14T02:13:26.225Z,81.86
2023-04-14T02:15:00.842Z,81.52
2023-04-14T02:16:34.273Z,81.53
2023-04-14T02:18:06.422Z,81.22
2023-04-14T02:19:38.733Z,81.26
2023-04-14T02:21:11.358Z,81.29
2023-04-14T02:22:43.796Z,81.35
2023-04-14T02:24:15.979Z,81.44
2023-04-14T02:26:19.324Z,81.55
2023-04-14T02:27:56.969Z,81.89
2023-04-14T02:29:29.743Z,81.76
2023-04-14T02:31:06.748Z,81.89
2023-04-14T02:32:41.206Z,82.10
2023-04-14T02:34:14.678Z,82.09
2023-04-14T02:35:56.856Z,81.80
2023-04-14T02:37:39.900Z,82.00
2023-04-14T02:39:18.340Z,82.33
2023-04-14T02:40:50.799Z,82.37
2023-04-14T02:42:27.551Z,82.37
2023-04-14T02:44:06.769Z,82.53
2023-04-14T02:45:41.070Z,82.32
2023-04-14T02:47:24.831Z,82.17
2023-04-14T02:48:58.370Z,82.26
2023-04-14T02:50:31.165Z,82.21
2023-04-14T02:52:07.583Z,82.49
2023-04-14T02:53:40.027Z,82.47
2023-04-14T02:55:12.352Z,82.50
2023-04-14T02:56:44.597Z,82.63
2023-04-14T02:58:17.052Z,82.61
2023-04-14T02:59:49.839Z,82.52
2023-04-14T03:01:22.146Z,82.65
2023-04-14T03:02:54.972Z,82.44
2023-04-14T03:04:27.529Z,82.42
2023-04-14T03:05:59.968Z,82.62
2023-04-14T03:07:32.557Z,82.52
2023-04-14T03:09:05.609Z,82.40
2023-04-14T03:10:39.011Z,82.42
2023-04-14T03:12:13.251Z,82.41
2023-04-14T03:13:46.379Z,82.76
2023-04-14T03:15:19.360Z,83.05
2023-04-14T03:16:53.610Z,83.24
2023-04-14T03:18:27.106Z,83.25
2023-04-14T03:20:00.550Z,83.10
2023-04-14T03:21:33.965Z,83.22
2023-04-14T03:23:06.304Z,83.44
2023-04-14T03:24:39.580Z,83.15
2023-04-14T03:26:18.756Z,83.24
2023-04-14T03:27:51.506Z,83.09
2023-04-14T03:29:28.273Z,82.80
2023-04-14T03:31:01.761Z,82.53
2023-04-14T03:32:37.342Z,82.46
2023-04-14T03:34:09.656Z,82.28
2023-04-14T03:35:42.575Z,82.56
2023-04-14T03:37:18.386Z,82.54
2023-04-14T03:38:51.524Z,82.89
2023-04-14T03:40:26.362Z,83.28
2023-04-14T03:41:59.083Z,83.30
2023-04-14T03:43:33.744Z,83.71
2023-04-14T03:45:06.901Z,83.80
2023-04-14T03:46:39.058Z,83.88
2023-04-14T03:48:13.827Z,83.76
2023-04-14T03:49:49.709Z,83.73
2023-04-14T03:51:23.124Z,83.53
2023-04-14T03:52:55.571Z,83.26
2023-04-14T03:54:30.901Z,83.36
2023-04-14T03:56:03.829Z,83.20
2023-04-14T03:57:36.969Z,83.18
2023-04-14T03:59:13.073Z,83.30
2023-04-14T04:00:45.745Z,83.09
2023-04-14T04:02:18.639Z,83.28
2023-04-14T04:03:52.668Z,83.17
2023-04-14T04:05:25.060Z,83.48
2023-04-14T04:06:57.490Z,83.33
2023-04-14T04:08:31.250Z,83.28
2023-04-14T04:10:06.260Z,82.99
2023-04-14T04:11:39.392Z,82.87
2023-04-14T04:13:13.927Z,82.38
2023-04-14T04:14:46.304Z,82.14
2023-04-14T04:16:19.946Z,81.85
2023-04-14T04:17:52.402Z,81.58
2023-04-14T04:19:24.736Z,81.23
2023-04-14T04:20:58.358Z,81.01
2023-04-14T04:22:31.054Z,81.02
2023-04-14T04:24:05.313Z,80.93
2023-04-14T04:25:39.088Z,80.88
2023-04-14T04:27:24.358Z,80.86
2023-04-14T04:29:01.108Z,80.69
2023-04-14T04:30:34.699Z,80.68
2023-04-14T04:32:07.349Z,80.18
2023-04-14T04:33:39.384Z,80.15
2023-04-14T04:35:12.298Z,80.16
2023-04-14T04:36:45.217Z,80.45
2023-04-14T04:38:17.735Z,80.39
2023-04-14T04:39:49.973Z,80.64
2023-04-14T04:41:23.038Z,80.92
2023-04-14T04:42:55.215Z,80.82
2023-04-14T04:44:27.480Z,81.01
2023-04-14T04:45:59.579Z,80.83
2023-04-14T04:47:31.738Z,80.51
2023-04-14T04:49:03.849Z,80.35
2023-04-14T04:50:36.084Z,80.47
2023-04-14T04:52:08.112Z,80.32
2023-04-14T04:53:40.284Z,80.24
2023-04-14T04:55:12.389Z,79.83
2023-04-14T04:56:44.466Z,79.60
2023-04-14T04:58:16.605Z,79.68
2023-04-14T04:59:51.787Z,79.61
2023-04-14T05:01:23.905Z,79.18
2023-04-14T05:02:56.887Z,79.31
2023-04-14T05:04:29.224Z,78.87
2023-04-14T05:06:01.491Z,78.72
2023-04-14T05:07:33.769Z,78.19
2023-04-14T05:09:06.416Z,77.48
2023-04-14T05:10:38.608Z,77.10
2023-04-14T05:12:11.157Z,76.83
2023-04-14T05:13:43.362Z,77.04
2023-04-14T05:15:16.456Z,76.12
2023-04-14T05:16:48.779Z,75.84
2023-04-14T05:18:21.217Z,75.43
2023-04-14T05:19:53.321Z,75.22
2023-04-14T05:21:25.542Z,74.92
2023-04-14T05:22:57.697Z,74.63
2023-04-14T05:24:29.826Z,74.09
2023-04-14T05:26:22.317Z,74.05
2023-04-14T05:27:54.364Z,74.03
2023-04-14T05:29:26.518Z,74.20
2023-04-14T05:31:01.186Z,74.04
2023-04-14T05:32:33.631Z,74.18
2023-04-14T05:34:08.395Z,74.03
2023-04-14T05:35:40.882Z,73.83
2023-04-14T05:37:13.039Z,73.72
2023-04-14T05:38:45.324Z,73.76
2023-04-14T05:40:18.453Z,73.33
2023-04-14T05:41:50.746Z,73.58
2023-04-14T05:43:22.838Z,73.44
2023-04-14T05:44:55.023Z,73.39
2023-04-14T05:46:27.190Z,73.43
2023-04-14T05:47:59.518Z,73.45
2023-04-14T05:49:31.876Z,73.96
2023-04-14T05:51:04.159Z,74.01
2023-04-14T05:52:36.417Z,74.11
2023-04-14T05:54:08.497Z,73.69
2023-04-14T05:55:41.949Z,74.02
2023-04-14T05:57:14.210Z,74.56
2023-04-14T05:58:46.412Z,74.73
2023-04-14T06:00:18.805Z,75.16
2023-04-14T06:01:53.705Z,75.10
2023-04-14T06:03:26.301Z,75.00
2023-04-14T06:05:00.214Z,74.70
2023-04-14T06:08:04.383Z,74.42
2023-04-14T06:09:36.616Z,74.73
2023-04-14T06:11:08.835Z,74.70
2023-04-14T06:12:40.931Z,74.94
2023-04-14T06:14:13.035Z,75.02
2023-04-14T06:15:45.139Z,75.03
2023-04-14T06:17:17.781Z,76.00
2023-04-14T06:18:49.982Z,76.30
2023-04-14T06:20:22.403Z,76.82
2023-04-14T06:21:54.643Z,76.68
2023-04-14T06:23:27.231Z,76.52
2023-04-14T06:24:59.356Z,76.38
2023-04-14T06:26:32.828Z,76.78
2023-04-14T06:28:04.762Z,76.64
2023-04-14T06:29:37.091Z,76.70
2023-04-14T06:31:09.375Z,76.73
2023-04-14T06:32:41.810Z,76.84
2023-04-14T06:34:13.968Z,76.99
2023-04-14T06:37:29.474Z,76.74
2023-04-14T06:39:01.827Z,76.90
2023-04-14T06:40:34.110Z,77.19
2023-04-14T06:42:06.415Z,77.51
2023-04-14T06:43:38.556Z,77.86
2023-04-14T06:45:11.167Z,77.67
2023-04-14T06:46:43.326Z,77.04
2023-04-14T06:48:16.102Z,76.86
2023-04-14T06:49:51.228Z,76.60
2023-04-14T06:51:23.351Z,76.64
2023-04-14T06:52:55.887Z,76.65
2023-04-14T06:54:28.499Z,76.33
2023-04-14T06:56:01.056Z,76.44
2023-04-14T06:57:33.291Z,76.08
2023-04-14T06:59:05.464Z,75.82
2023-04-14T07:00:37.785Z,75.68
2023-04-14T07:02:10.012Z,75.75
2023-04-14T07:03:42.185Z,75.75
2023-04-14T07:05:14.883Z,75.63
2023-04-14T07:06:47.133Z,75.45
2023-04-14T07:08:20.448Z,75.55
2023-04-14T07:09:52.739Z,75.51
2023-04-14T07:11:25.259Z,75.39
2023-04-14T07:12:57.419Z,75.23
2023-04-14T07:14:31.854Z,75.05
2023-04-14T07:16:04.805Z,74.96
2023-04-14T07:17:37.273Z,74.86
2023-04-14T07:19:09.656Z,74.86
2023-04-14T07:20:42.356Z,74.52
2023-04-14T07:22:14.577Z,74.33
2023-04-14T07:23:46.665Z,74.29
2023-04-14T07:25:19.796Z,73.98
2023-04-14T07:26:52.319Z,73.69
2023-04-14T07:28:25.335Z,73.14
2023-04-14T07:29:57.560Z,73.05
2023-04-14T07:31:31.784Z,72.77
2023-04-14T07:33:04.151Z,73.31
2023-04-14T07:34:36.356Z,74.17
2023-04-14T07:36:09.919Z,74.83
2023-04-14T07:37:42.090Z,74.40
2023-04-14T07:39:14.287Z,74.02
2023-04-14T07:40:46.937Z,74.35
2023-04-14T07:42:19.215Z,73.89
2023-04-14T07:43:51.374Z,73.82
2023-04-14T07:45:23.960Z,73.80
2023-04-14T07:46:56.159Z,74.01
2023-04-14T07:48:28.687Z,73.94
2023-04-14T07:50:00.809Z,74.08
2023-04-14T07:51:33.544Z,74.19
2023-04-14T07:53:05.812Z,73.61
2023-04-14T07:54:38.020Z,72.41
2023-04-14T07:56:10.353Z,72.79
2023-04-14T07:57:42.634Z,72.33
2023-04-14T07:59:15.120Z,72.32
2023-04-14T08:00:47.397Z,72.16
2023-04-14T08:02:19.908Z,71.95
2023-04-14T08:03:52.506Z,71.92
2023-04-14T08:05:24.946Z,71.46
2023-04-14T08:06:58.288Z,71.47
2023-04-14T08:08:30.706Z,71.43
2023-04-14T08:10:03.805Z,71.12
2023-04-14T08:11:36.122Z,71.33
2023-04-14T08:13:08.340Z,71.70
2023-04-14T08:14:40.670Z,72.28
2023-04-14T08:16:13.330Z,71.79
2023-04-14T08:17:45.581Z,71.58
2023-04-14T08:19:17.751Z,71.55
2023-04-14T08:20:50.151Z,71.12
2023-04-14T08:22:22.326Z,71.05
2023-04-14T08:23:54.512Z,70.91
2023-04-14T08:26:59.950Z,70.83
2023-04-14T08:28:32.321Z,70.68
2023-04-14T08:30:05.693Z,70.65
2023-04-14T08:31:37.806Z,70.43
2023-04-14T08:33:10.147Z,70.51
2023-04-14T08:35:37.018Z,70.39
2023-04-14T08:36:34.857Z,70.33
2023-04-14T08:38:07.275Z,69.30
2023-04-14T08:39:39.447Z,69.40
2023-04-14T08:41:13.563Z,69.52
2023-04-14T08:42:48.793Z,69.30
2023-04-14T08:44:22.367Z,68.12
2023-04-14T08:45:55.381Z,67.22
2023-04-14T08:47:32.390Z,66.75
2023-04-14T08:49:08.928Z,66.87
2023-04-14T08:51:08.336Z,68.18
2023-04-14T08:52:41.310Z,67.81
2023-04-14T08:54:13.699Z,66.62
2023-04-14T08:55:45.972Z,65.64
2023-04-14T08:57:23.207Z,63.95
2023-04-14T08:58:55.813Z,61.47
2023-04-14T09:00:28.148Z,62.22
2023-04-14T09:02:00.929Z,62.54
2023-04-14T09:03:33.723Z,62.59
2023-04-14T09:05:07.361Z,60.58
2023-04-14T09:06:40.667Z,61.54
2023-04-14T09:08:13.198Z,62.97
2023-04-14T09:09:46.004Z,60.28
2023-04-14T09:11:20.685Z,59.73
2023-04-14T09:12:53.080Z,60.48
2023-04-14T09:14:25.434Z,60.67
2023-04-14T09:15:58.113Z,61.40
2023-04-14T09:17:32.002Z,59.92
2023-04-14T09:19:06.855Z,56.64
2023-04-14T09:20:41.313Z,56.64
2023-04-14T09:22:14.151Z,56.94
2023-04-14T09:23:47.169Z,57.16
2023-04-14T09:25:20.275Z,58.25
2023-04-14T09:26:53.386Z,60.21
2023-04-14T09:28:25.810Z,57.90
2023-04-14T09:29:59.115Z,55.99
2023-04-14T09:31:31.225Z,56.85
2023-04-14T09:33:07.700Z,54.95
2023-04-14T09:34:54.683Z,52.03
2023-04-14T09:36:29.564Z,54.91
2023-04-14T09:38:02.220Z,51.07
2023-04-14T09:39:35.753Z,50.65
2023-04-14T09:41:08.641Z,48.35
2023-04-14T09:42:43.210Z,51.13
2023-04-14T09:44:15.374Z,49.94
2023-04-14T09:45:47.715Z,51.07
2023-04-14T09:47:21.344Z,49.63
2023-04-14T09:48:55.882Z,48.93
2023-04-14T09:50:28.486Z,48.56
2023-04-14T09:52:08.115Z,47.79
2023-04-14T09:53:41.576Z,50.32
2023-04-14T09:55:15.903Z,48.95
2023-04-14T09:56:48.202Z,46.14
2023-04-14T09:58:25.571Z,43.62
2023-04-14T09:59:59.067Z,45.50
2023-04-14T10:01:34.592Z,45.53
2023-04-14T10:03:07.313Z,45.98
2023-04-14T10:04:39.660Z,45.27
2023-04-14T10:06:24.224Z,46.47
2023-04-14T10:07:56.753Z,48.35
2023-04-14T10:09:30.104Z,47.74
2023-04-14T10:11:14.191Z,46.47
2023-04-14T10:12:46.986Z,45.99
2023-04-14T10:14:19.273Z,46.32
2023-04-14T10:15:51.542Z,46.36
2023-04-14T10:17:23.882Z,46.14
2023-04-14T10:18:58.065Z,46.59
2023-04-14T10:20:30.594Z,47.76
2023-04-14T10:22:03.249Z,47.25
2023-04-14T10:23:40.203Z,48.26
2023-04-14T10:25:13.701Z,49.81
2023-04-14T10:26:47.699Z,51.17
2023-04-14T10:28:19.987Z,49.60
2023-04-14T10:29:52.166Z,49.89
2023-04-14T10:31:26.152Z,50.42
2023-04-14T10:32:58.543Z,50.37
2023-04-14T10:34:35.474Z,50.55
2023-04-14T10:36:07.722Z,49.75
2023-04-14T10:37:40.088Z,50.05
2023-04-14T10:39:12.946Z,50.30
2023-04-14T10:41:05.911Z,49.37
2023-04-14T10:43:12.421Z,50.47
2023-04-14T10:44:44.807Z,48.82
2023-04-14T10:46:18.625Z,49.41
2023-04-14T10:47:51.447Z,49.99
2023-04-14T10:49:31.651Z,51.75
2023-04-14T10:51:06.292Z,52.05
2023-04-14T10:52:39.667Z,51.00
2023-04-14T10:54:20.908Z,51.26
2023-04-14T10:56:01.143Z,51.46
2023-04-14T10:57:43.809Z,51.36
2023-04-14T10:59:17.980Z,51.39
2023-04-14T11:00:50.144Z,51.71
2023-04-14T11:02:30.870Z,51.01
2023-04-14T11:04:20.435Z,50.34
2023-04-14T11:05:52.794Z,51.02
2023-04-14T11:07:25.026Z,50.38
2023-04-14T11:08:57.902Z,50.42
2023-04-14T11:10:32.835Z,50.61
2023-04-14T11:12:07.214Z,50.63
2023-04-14T11:13:42.818Z,50.59
2023-04-14T11:15:18.131Z,49.93
2023-04-14T11:17:02.898Z,49.41
2023-04-14T11:18:45.646Z,50.69
2023-04-14T11:20:24.567Z,52.76
2023-04-14T11:21:57.649Z,53.43
2023-04-14T11:23:29.962Z,53.79
2023-04-14T11:25:02.890Z,55.08
2023-04-14T11:26:35.364Z,55.89
2023-04-14T11:28:08.363Z,57.83
2023-04-14T11:29:40.504Z,58.60
2023-04-14T11:31:14.986Z,59.58
2023-04-14T11:32:53.011Z,59.96
2023-04-14T11:34:28.767Z,61.04
2023-04-14T11:36:02.879Z,62.50
2023-04-14T11:37:36.693Z,61.82
2023-04-14T11:39:08.955Z,61.39
2023-04-14T11:40:41.558Z,61.89
2023-04-14T11:42:13.868Z,62.83
2023-04-14T11:43:47.352Z,63.77
2023-04-14T11:45:19.845Z,64.45
2023-04-14T11:46:52.026Z,65.93
2023-04-14T11:48:24.233Z,66.92
2023-04-14T11:49:56.419Z,67.66
2023-04-14T11:51:30.996Z,67.08
2023-04-14T11:53:08.830Z,66.81
2023-04-14T11:54:41.172Z,68.32
2023-04-14T11:56:13.517Z,68.01
2023-04-14T11:57:47.589Z,68.61
2023-04-14T11:59:19.817Z,68.49
2023-04-14T12:00:55.487Z,68.47
2023-04-14T12:02:28.386Z,67.92
2023-04-14T12:04:00.883Z,67.41
2023-04-14T12:05:34.385Z,67.76
2023-04-14T12:07:10.496Z,68.40
2023-04-14T12:08:44.339Z,67.91
2023-04-14T12:10:16.697Z,69.60
2023-04-14T13:02:49.970Z,53.47
2023-04-14T13:04:22.361Z,55.86
2023-04-14T13:05:58.487Z,55.65
2023-04-14T13:07:31.317Z,52.18
2023-04-14T13:09:04.249Z,51.55
2023-04-14T13:10:36.753Z,50.73
2023-04-14T13:12:08.994Z,48.72
2023-04-14T13:13:41.460Z,49.04
2023-04-14T13:15:27.848Z,50.42
2023-04-14T13:17:06.638Z,48.89
2023-04-14T13:18:39.163Z,48.27
2023-04-14T13:20:11.855Z,47.61
2023-04-14T13:21:44.102Z,47.11
2023-04-14T13:23:16.380Z,46.75
2023-04-14T13:24:50.507Z,44.73
2023-04-14T13:26:23.027Z,41.01
2023-04-14T13:27:55.354Z,40.72
2023-04-14T13:29:27.533Z,39.46
2023-04-14T13:30:59.773Z,38.65
2023-04-14T13:32:34.285Z,38.15
2023-04-14T13:34:06.560Z,39.27
2023-04-14T13:35:39.089Z,39.19
2023-04-14T13:37:11.268Z,38.64
2023-04-14T13:38:43.490Z,38.51
2023-04-14T13:40:16.016Z,37.75
2023-04-14T13:41:48.214Z,36.99
2023-04-14T13:43:20.357Z,38.30
2023-04-14T13:44:53.013Z,37.91
2023-04-14T13:46:26.417Z,38.02
2023-04-14T13:47:58.561Z,37.67
2023-04-14T13:49:31.898Z,37.74
2023-04-14T13:51:04.404Z,38.44
2023-04-14T13:52:36.638Z,38.49
2023-04-14T13:54:11.797Z,38.39
2023-04-14T13:55:46.902Z,39.10
2023-04-14T13:57:19.291Z,37.70
2023-04-14T13:58:54.930Z,37.90
2023-04-14T14:00:27.693Z,38.11
2023-04-14T14:02:00.012Z,38.43
2023-04-14T14:03:32.570Z,38.58
2023-04-14T14:05:05.372Z,36.76
2023-04-14T14:06:37.854Z,36.96
2023-04-14T14:08:10.045Z,36.00
2023-04-14T14:09:42.414Z,36.26
2023-04-14T14:11:17.149Z,35.90
2023-04-14T14:12:49.396Z,36.33
2023-04-14T14:14:21.661Z,36.65
2023-04-14T14:15:54.510Z,36.36
2023-04-14T14:17:27.928Z,36.24
2023-04-14T14:19:00.322Z,36.45
2023-04-14T14:20:32.700Z,36.32
2023-04-14T14:22:04.826Z,35.77
2023-04-14T14:23:36.983Z,36.26
2023-04-14T14:25:19.578Z,35.63
2023-04-14T14:26:52.819Z,35.83
2023-04-14T14:28:25.141Z,36.47
2023-04-14T14:29:57.371Z,36.29
2023-04-14T14:31:29.650Z,36.60
2023-04-14T14:33:01.819Z,36.10
2023-04-14T14:34:34.060Z,36.21
2023-04-14T14:36:07.245Z,36.39
2023-04-14T14:37:41.253Z,36.31
2023-04-14T14:39:13.915Z,36.13
2023-04-14T14:40:46.133Z,35.76
2023-04-14T14:42:18.393Z,35.88
2023-04-14T14:43:51.693Z,35.96
2023-04-14T14:45:30.391Z,35.77
2023-04-14T14:47:03.580Z,35.74
2023-04-14T14:48:36.662Z,36.19
2023-04-14T14:50:09.089Z,35.89
2023-04-14T14:51:41.302Z,35.99
2023-04-14T14:53:13.457Z,36.08
2023-04-14T14:54:45.639Z,36.03
2023-04-14T14:56:18.809Z,35.75
2023-04-14T14:57:51.747Z,35.95
2023-04-14T14:59:24.283Z,35.75
2023-04-14T15:00:56.388Z,36.40
2023-04-14T15:02:29.019Z,36.26
2023-04-14T15:04:01.763Z,35.77
2023-04-14T15:05:34.581Z,36.22
2023-04-14T15:07:08.034Z,36.94
2023-04-14T15:08:39.983Z,36.56
2023-04-14T15:10:12.252Z,36.45
2023-04-14T15:11:44.440Z,36.34
2023-04-14T15:13:16.638Z,35.83
2023-04-14T15:14:49.060Z,35.72
2023-04-14T15:16:21.501Z,36.02
2023-04-14T15:17:53.740Z,36.24
2023-04-14T15:19:25.948Z,36.64
2023-04-14T15:20:58.058Z,36.63
2023-04-14T15:22:30.442Z,36.79
2023-04-14T15:24:02.683Z,36.83
2023-04-14T15:25:34.978Z,37.81
2023-04-14T15:27:07.160Z,37.77
2023-04-14T15:28:39.921Z,38.04
2023-04-14T15:30:12.556Z,38.75
2023-04-14T15:31:47.117Z,39.33
2023-04-14T15:33:19.332Z,39.74
2023-04-14T15:34:55.480Z,39.79
2023-04-14T15:36:27.916Z,40.41
2023-04-14T15:38:00.204Z,39.89
2023-04-14T15:39:32.780Z,39.34
2023-04-14T15:41:05.985Z,39.61
2023-04-14T15:42:38.485Z,40.21
2023-04-14T15:44:10.921Z,40.39
2023-04-14T15:45:43.206Z,40.83
2023-04-14T15:47:15.540Z,41.18
2023-04-14T15:48:47.669Z,42.00
2023-04-14T15:50:20.177Z,43.12
2023-04-14T15:51:53.201Z,45.60
2023-04-14T15:53:26.069Z,47.27
2023-04-14T15:54:58.167Z,49.28
2023-04-14T15:56:30.608Z,48.63
2023-04-14T15:58:02.986Z,49.74
2023-04-14T15:59:35.152Z,49.82
2023-04-14T16:01:08.277Z,50.19
2023-04-14T16:02:42.419Z,50.13
2023-04-14T16:04:14.806Z,50.54
2023-04-14T16:05:46.973Z,50.12
2023-04-14T16:07:19.057Z,50.30
2023-04-14T16:08:51.351Z,50.20
2023-04-14T16:10:23.792Z,49.64
2023-04-14T16:11:56.937Z,49.42
2023-04-14T16:13:29.198Z,49.61
2023-04-14T16:15:01.533Z,49.58
2023-04-14T16:16:34.174Z,49.87
2023-04-14T16:18:06.344Z,48.96
2023-04-14T16:19:38.637Z,48.82
2023-04-14T16:21:11.005Z,48.58
2023-04-14T16:22:43.234Z,48.80
2023-04-14T16:24:16.045Z,48.78
2023-04-14T16:25:51.517Z,48.43
2023-04-14T16:27:23.683Z,48.41
2023-04-14T16:28:55.919Z,48.22
2023-04-14T16:30:28.055Z,48.37
2023-04-14T16:32:02.124Z,48.65
2023-04-14T16:33:34.292Z,48.81
2023-04-14T16:35:07.098Z,48.82
2023-04-14T16:36:45.350Z,48.79
2023-04-14T16:38:17.586Z,48.69
2023-04-14T16:39:56.588Z,48.59
2023-04-14T16:41:29.302Z,48.66
2023-04-14T16:43:02.021Z,48.89
2023-04-14T16:44:37.389Z,48.93
2023-04-14T16:46:09.582Z,49.14
2023-04-14T16:47:42.063Z,49.14
2023-04-14T16:49:15.136Z,49.19
2023-04-14T16:50:49.976Z,48.90
2023-04-14T16:52:22.416Z,48.89
2023-04-14T16:53:54.699Z,48.14
2023-04-14T16:55:26.963Z,45.75
2023-04-14T16:56:59.022Z,45.72
2023-04-14T16:58:31.206Z,45.91
2023-04-14T17:00:04.941Z,46.81
2023-04-14T17:01:37.420Z,47.16
2023-04-14T17:03:09.769Z,47.61
2023-04-14T17:04:42.220Z,47.15
2023-04-14T17:06:14.482Z,47.31
2023-04-14T17:07:47.275Z,47.10
2023-04-14T17:09:19.515Z,47.07
2023-04-14T17:10:52.090Z,47.15
2023-04-14T17:12:24.353Z,46.80
2023-04-14T17:13:56.574Z,46.82
2023-04-14T17:15:28.972Z,46.89
2023-04-14T17:17:01.203Z,47.25
2023-04-14T17:18:34.033Z,46.91
2023-04-14T17:20:07.162Z,47.24
2023-04-14T17:21:39.442Z,47.79
2023-04-14T17:23:11.790Z,48.26
2023-04-14T17:24:44.824Z,48.22
2023-04-14T17:26:17.419Z,48.40
2023-04-14T17:27:49.660Z,49.11
2023-04-14T17:29:21.784Z,49.16
2023-04-14T17:30:53.923Z,49.22
2023-04-14T17:32:26.823Z,49.52
2023-04-14T17:33:59.321Z,49.76
2023-04-14T17:35:32.465Z,49.53
2023-04-14T17:38:52.037Z,49.91
2023-04-14T17:40:24.307Z,50.44
2023-04-14T17:41:58.368Z,49.65
2023-04-14T17:43:30.571Z,49.58
2023-04-14T17:45:02.992Z,48.93
2023-04-14T17:46:35.227Z,46.58
2023-04-14T17:48:08.658Z,45.73
2023-04-14T17:49:41.139Z,45.79
2023-04-14T17:51:13.243Z,45.96
2023-04-14T17:52:46.160Z,45.35
2023-04-14T17:54:18.329Z,44.84
2023-04-14T17:55:51.863Z,45.46
2023-04-14T17:57:24.979Z,48.62
2023-04-14T17:58:57.956Z,50.00
2023-04-14T18:00:30.124Z,51.62
2023-04-14T18:02:02.308Z,53.01
2023-04-14T18:03:34.830Z,53.72
2023-04-14T18:05:07.553Z,54.15
2023-04-14T18:06:39.697Z,54.12
2023-04-14T18:08:11.946Z,53.30
2023-04-14T18:09:44.268Z,53.81
2023-04-14T18:11:16.447Z,53.34
2023-04-14T18:12:49.680Z,54.31
2023-04-14T18:14:22.057Z,55.21
2023-04-14T18:15:54.226Z,54.83
2023-04-14T18:17:26.630Z,54.92
2023-04-14T18:18:59.317Z,55.81
2023-04-14T18:20:31.650Z,56.83
2023-04-14T18:22:03.861Z,57.97
2023-04-14T18:23:36.738Z,57.62
2023-04-14T18:25:10.048Z,57.55
2023-04-14T18:26:42.291Z,57.14
2023-04-14T18:28:14.679Z,57.04
2023-04-14T18:29:47.033Z,56.24
2023-04-14T18:31:19.435Z,54.88
2023-04-14T18:32:52.743Z,56.30
2023-04-14T18:34:24.838Z,58.54
2023-04-14T18:36:00.960Z,58.34
2023-04-14T18:37:33.277Z,58.76
2023-04-14T18:39:05.470Z,58.28
2023-04-14T18:40:38.642Z,58.27
2023-04-14T18:42:11.075Z,58.05
2023-04-14T18:43:43.253Z,58.46
2023-04-14T18:45:15.521Z,58.76
2023-04-14T18:46:47.879Z,58.28
2023-04-14T18:48:20.528Z,58.91
2023-04-14T18:49:52.711Z,58.88
2023-04-14T18:51:24.926Z,57.82
2023-04-14T18:52:57.542Z,57.24
2023-04-14T18:54:30.013Z,57.75
2023-04-14T18:56:05.072Z,56.96
2023-04-14T18:57:37.749Z,59.40
2023-04-14T18:59:09.844Z,58.76
2023-04-14T19:00:45.457Z,60.30
2023-04-14T19:02:17.679Z,60.91
2023-04-14T19:03:52.014Z,60.51
2023-04-14T19:05:27.959Z,60.84
2023-04-14T19:07:00.044Z,60.16
2023-04-14T19:08:32.202Z,60.21
2023-04-14T19:10:05.267Z,60.03
2023-04-14T19:11:37.464Z,62.39
2023-04-14T19:13:11.648Z,62.39
2023-04-14T19:14:44.548Z,62.39
2023-04-14T19:16:16.986Z,61.56
2023-04-14T19:17:49.170Z,61.75
2023-04-14T19:19:21.353Z,62.42
2023-04-14T19:20:55.746Z,61.73
2023-04-14T19:22:28.770Z,61.10
2023-04-14T19:24:00.877Z,62.14
2023-04-14T19:25:33.198Z,61.79
2023-04-14T19:27:08.966Z,61.36
2023-04-14T19:28:42.801Z,60.86
2023-04-14T19:30:15.066Z,61.14
2023-04-14T19:31:47.515Z,62.97
2023-04-14T19:33:19.844Z,63.20
2023-04-14T19:34:51.971Z,63.04
2023-04-14T19:36:24.413Z,63.46
2023-04-14T19:37:58.386Z,63.01
2023-04-14T19:39:31.213Z,63.02
2023-04-14T19:41:04.140Z,62.90
2023-04-14T19:42:36.257Z,62.51
2023-04-14T19:44:08.932Z,61.69
2023-04-14T19:45:52.371Z,61.36
2023-04-14T19:47:24.856Z,61.07
2023-04-14T19:48:57.189Z,60.84
2023-04-14T19:50:29.416Z,63.59
2023-04-14T19:52:02.022Z,63.17
2023-04-14T19:53:34.912Z,62.51
2023-04-14T19:55:07.675Z,62.54
2023-04-14T19:56:41.211Z,62.11
2023-04-14T19:58:13.212Z,62.37
2023-04-14T19:59:45.336Z,62.95
2023-04-14T20:01:17.524Z,63.01
2023-04-14T20:02:50.050Z,63.89
2023-04-14T20:04:22.785Z,64.01
2023-04-14T20:05:57.108Z,64.15
2023-04-14T20:07:29.277Z,64.63
2023-04-14T20:09:02.350Z,64.09
2023-04-14T20:10:34.804Z,63.45
2023-04-14T20:12:06.928Z,62.90
2023-04-14T20:13:41.857Z,64.32
2023-04-14T20:16:50.826Z,66.18
2023-04-14T20:18:23.712Z,66.20
2023-04-14T20:19:56.055Z,67.02
2023-04-14T20:21:28.562Z,66.76
2023-04-14T20:23:01.937Z,66.52
2023-04-14T20:24:34.291Z,67.28
2023-04-14T20:26:06.470Z,68.02
2023-04-14T20:27:39.313Z,67.39
2023-04-14T20:29:12.558Z,68.02
2023-04-14T20:30:45.417Z,67.69
2023-04-14T20:32:18.381Z,67.44
2023-04-14T20:33:51.477Z,68.08
2023-04-14T20:35:23.819Z,68.77
2023-04-14T20:36:56.161Z,68.56
2023-04-14T20:38:29.654Z,68.85
2023-04-14T20:40:01.948Z,68.71
2023-04-14T20:41:35.082Z,68.49
2023-04-14T20:43:07.906Z,67.64
2023-04-14T20:44:40.847Z,67.24
2023-04-14T20:46:13.104Z,67.21
2023-04-14T20:47:45.470Z,66.52
2023-04-14T20:49:17.971Z,65.96
2023-04-14T20:50:50.514Z,65.85
2023-04-14T20:52:23.191Z,67.02
2023-04-14T20:53:56.186Z,68.35
2023-04-14T20:55:28.267Z,68.81
2023-04-14T20:57:00.693Z,68.64
2023-04-14T20:58:32.838Z,69.18
2023-04-14T21:00:05.662Z,69.96
2023-04-14T21:01:38.048Z,69.99
2023-04-14T21:03:10.365Z,70.79
2023-04-14T21:04:42.757Z,70.61
2023-04-14T21:06:14.988Z,70.96